createdAt,value
2023-10-06T00:00:24.636Z,11.7
2023-10-06T00:01:25.687Z,11.7
2023-10-06T00:02:26.752Z,11.5
2023-10-06T00:03:27.677Z,11.4
2023-10-06T00:04:28.930Z,11.3
2023-10-06T00:05:29.699Z,11.2
2023-10-06T00:06:30.641Z,11.2
2023-10-06T00:07:31.681Z,11.2
2023-10-06T00:08:32.653Z,11.2
2023-10-06T00:09:33.660Z,11.2
2023-10-06T00:10:34.644Z,11.3
2023-10-06T00:11:35.777Z,11.3
2023-10-06T00:12:36.674Z,11.2
2023-10-06T00:13:37.705Z,11.3
2023-10-06T00:14:38.719Z,11.3
2023-10-06T00:15:39.687Z,11.4
2023-10-06T00:16:40.931Z,11.4
2023-10-06T00:17:41.664Z,11.4
2023-10-06T00:18:42.686Z,11.4
2023-10-06T00:19:43.730Z,11.4
2023-10-06T00:20:44.670Z,11.5
2023-10-06T00:21:45.729Z,11.5
2023-10-06T00:22:46.697Z,11.5
2023-10-06T00:23:47.683Z,11.5
2023-10-06T00:24:48.658Z,11.5
2023-10-06T00:25:49.682Z,11.5
2023-10-06T00:26:50.761Z,11.5
2023-10-06T00:27:51.682Z,11.3
2023-10-06T00:28:52.667Z,11.3
2023-10-06T00:29:53.661Z,11.3
2023-10-06T00:30:54.685Z,11.3
2023-10-06T00:31:55.698Z,11.3
2023-10-06T00:32:56.713Z,11.3
2023-10-06T00:33:57.652Z,11.4
2023-10-06T00:34:58.740Z,11.4
2023-10-06T00:35:59.709Z,11.4
2023-10-06T00:37:00.663Z,11.5
2023-10-06T00:38:01.711Z,11.6
2023-10-06T00:39:03.951Z,11.6
2023-10-06T00:40:04.673Z,11.7
2023-10-06T00:41:05.782Z,11.7
2023-10-06T00:42:06.810Z,11.7
2023-10-06T00:43:07.677Z,11.8
2023-10-06T00:44:08.734Z,11.8
2023-10-06T00:45:09.672Z,11.9
2023-10-06T00:46:10.686Z,11.9
2023-10-06T00:47:11.758Z,11.9
2023-10-06T00:48:12.774Z,12
2023-10-06T00:49:13.722Z,12
2023-10-06T00:50:14.669Z,11.9
2023-10-06T00:51:17.484Z,11.9
2023-10-06T00:52:16.911Z,11.9
2023-10-06T00:53:17.706Z,11.9
2023-10-06T00:54:18.691Z,12
2023-10-06T00:55:19.739Z,12
2023-10-06T00:56:20.823Z,11.9
2023-10-06T00:57:21.841Z,11.9
2023-10-06T00:58:22.692Z,11.9
2023-10-06T00:59:23.697Z,12
2023-10-06T01:00:24.753Z,12
2023-10-06T01:01:25.833Z,12
2023-10-06T01:02:26.769Z,12
2023-10-06T01:03:27.726Z,12
2023-10-06T01:04:29.099Z,12
2023-10-06T01:05:30.701Z,12.1
2023-10-06T01:06:31.731Z,12
2023-10-06T01:07:32.696Z,12
2023-10-06T01:08:33.732Z,12
2023-10-06T01:09:34.926Z,12
2023-10-06T01:10:35.934Z,12
2023-10-06T01:11:36.729Z,12
2023-10-06T01:12:37.822Z,12.1
2023-10-06T01:13:38.764Z,12.1
2023-10-06T01:14:39.680Z,12.1
2023-10-06T01:15:40.722Z,12.1
2023-10-06T01:16:41.712Z,12.1
2023-10-06T01:17:42.721Z,12.1
2023-10-06T01:18:43.702Z,12.1
2023-10-06T01:19:44.735Z,12.2
2023-10-06T01:20:45.759Z,12.2
2023-10-06T01:21:46.722Z,12.2
2023-10-06T01:22:47.730Z,12.2
2023-10-06T01:23:48.808Z,12.2
2023-10-06T01:24:49.682Z,12.3
2023-10-06T01:25:50.792Z,12.3
2023-10-06T01:26:51.732Z,12.4
2023-10-06T01:27:52.805Z,12.5
2023-10-06T01:28:53.719Z,12.6
2023-10-06T01:29:54.699Z,12.6
2023-10-06T01:30:55.723Z,12.7
2023-10-06T01:31:56.751Z,12.7
2023-10-06T01:32:57.763Z,12.7
2023-10-06T01:35:34.967Z,12.6
2023-10-06T01:36:35.763Z,12.6
2023-10-06T01:37:36.704Z,12.5
2023-10-06T01:38:37.701Z,12.5
2023-10-06T01:39:38.777Z,12.4
2023-10-06T01:40:39.763Z,12.4
2023-10-06T01:41:40.713Z,12.4
2023-10-06T01:42:41.729Z,12.4
2023-10-06T01:43:42.862Z,12.4
2023-10-06T01:44:43.721Z,12.4
2023-10-06T01:45:44.723Z,12.4
2023-10-06T01:46:45.745Z,12.4
2023-10-06T01:47:46.755Z,12.4
2023-10-06T01:48:47.762Z,12.5
2023-10-06T01:49:48.982Z,12.5
2023-10-06T01:50:49.684Z,12.5
2023-10-06T01:52:02.848Z,12.6
2023-10-06T01:52:51.757Z,12.6
2023-10-06T01:53:52.698Z,12.6
2023-10-06T01:54:53.725Z,12.7
2023-10-06T01:55:54.779Z,12.7
2023-10-06T01:56:55.705Z,12.7
2023-10-06T01:57:56.735Z,12.7
2023-10-06T01:58:57.835Z,12.7
2023-10-06T01:59:58.708Z,12.8
2023-10-06T02:00:59.800Z,12.8
2023-10-06T02:02:00.793Z,12.8
2023-10-06T02:03:01.784Z,12.8
2023-10-06T02:04:02.728Z,12.8
2023-10-06T02:05:03.997Z,12.8
2023-10-06T02:06:04.723Z,12.8
2023-10-06T02:07:05.762Z,12.7
2023-10-06T02:08:06.736Z,12.7
2023-10-06T02:09:08.009Z,12.7
2023-10-06T02:10:08.736Z,12.7
2023-10-06T02:11:09.786Z,12.7
2023-10-06T02:12:10.789Z,12.7
2023-10-06T02:13:11.712Z,12.7
2023-10-06T02:14:12.854Z,12.7
2023-10-06T02:15:13.708Z,12.7
2023-10-06T02:16:14.733Z,12.7
2023-10-06T02:17:15.775Z,12.7
2023-10-06T02:18:16.770Z,12.7
2023-10-06T02:19:17.778Z,12.7
2023-10-06T02:20:19.089Z,12.8
2023-10-06T02:21:19.733Z,12.6
2023-10-06T02:22:20.758Z,12.6
2023-10-06T02:23:21.744Z,12.6
2023-10-06T02:24:22.738Z,12.6
2023-10-06T02:25:23.756Z,12.7
2023-10-06T02:26:24.715Z,12.7
2023-10-06T02:27:25.767Z,12.7
2023-10-06T02:28:26.744Z,12.7
2023-10-06T02:29:27.865Z,12.7
2023-10-06T02:30:28.747Z,12.7
2023-10-06T02:31:29.764Z,12.7
2023-10-06T02:32:30.778Z,12.8
2023-10-06T02:33:32.302Z,12.8
2023-10-06T02:34:32.779Z,12.8
2023-10-06T02:35:34.215Z,12.8
2023-10-06T02:36:35.750Z,12.6
2023-10-06T02:37:36.882Z,12.7
2023-10-06T02:38:37.742Z,12.5
2023-10-06T02:39:38.747Z,12.4
2023-10-06T02:40:39.755Z,12.6
2023-10-06T02:41:40.764Z,12.6
2023-10-06T02:42:41.764Z,12.7
2023-10-06T02:43:42.725Z,12.7
2023-10-06T02:44:43.898Z,12.7
2023-10-06T02:45:44.716Z,12.7
2023-10-06T02:46:45.859Z,12.7
2023-10-06T02:47:46.880Z,12.6
2023-10-06T02:48:47.755Z,12.6
2023-10-06T02:49:49.491Z,12.6
2023-10-06T02:50:50.797Z,12.7
2023-10-06T02:51:51.777Z,12.8
2023-10-06T02:52:52.926Z,12.8
2023-10-06T02:53:53.810Z,12.8
2023-10-06T02:54:54.756Z,12.8
2023-10-06T02:55:55.786Z,12.8
2023-10-06T02:56:56.772Z,12.9
2023-10-06T02:57:57.763Z,12.8
2023-10-06T02:58:58.794Z,12.8
2023-10-06T02:59:59.894Z,12.9
2023-10-06T03:01:00.824Z,12.9
2023-10-06T03:02:02.032Z,12.9
2023-10-06T03:03:02.816Z,12.9
2023-10-06T03:04:03.771Z,12.9
2023-10-06T03:05:04.793Z,12.9
2023-10-06T03:06:05.745Z,12.8
2023-10-06T03:07:06.749Z,12.8
2023-10-06T03:08:07.788Z,12.8
2023-10-06T03:09:08.968Z,12.9
2023-10-06T03:10:09.764Z,12.9
2023-10-06T03:11:10.913Z,12.9
2023-10-06T03:12:11.782Z,12.9
2023-10-06T03:13:12.748Z,12.9
2023-10-06T03:14:13.767Z,12.9
2023-10-06T03:15:14.891Z,13
2023-10-06T03:16:15.773Z,13
2023-10-06T03:17:16.759Z,13.1
2023-10-06T03:18:17.816Z,13.1
2023-10-06T03:19:19.846Z,13.1
2023-10-06T03:20:20.750Z,13.1
2023-10-06T03:21:21.776Z,13.1
2023-10-06T03:22:22.776Z,13.1
2023-10-06T03:23:23.773Z,13.1
2023-10-06T03:24:24.786Z,13.1
2023-10-06T03:25:25.783Z,13
2023-10-06T03:26:26.778Z,12.9
2023-10-06T03:27:27.779Z,12.7
2023-10-06T03:28:28.822Z,12.7
2023-10-06T03:29:29.782Z,12.5
2023-10-06T03:30:31.018Z,12.3
2023-10-06T03:31:31.786Z,12.3
2023-10-06T03:32:32.841Z,12.3
2023-10-06T03:33:33.849Z,12.3
2023-10-06T03:34:35.093Z,12.4
2023-10-06T03:35:35.793Z,12.4
2023-10-06T03:36:36.788Z,12.4
2023-10-06T03:37:37.815Z,12.4
2023-10-06T03:38:38.794Z,12.5
2023-10-06T03:39:39.812Z,12.4
2023-10-06T03:40:40.865Z,12.3
2023-10-06T03:41:41.784Z,12.2
2023-10-06T03:42:42.781Z,12.2
2023-10-06T03:43:43.802Z,11.9
2023-10-06T03:44:44.789Z,11.7
2023-10-06T03:45:45.951Z,11.5
2023-10-06T03:46:46.878Z,11.5
2023-10-06T03:47:47.742Z,11.4
2023-10-06T03:48:48.786Z,11.3
2023-10-06T03:49:49.891Z,11.2
2023-10-06T03:50:50.817Z,11.2
2023-10-06T03:51:51.796Z,11.2
2023-10-06T03:52:52.816Z,11.2
2023-10-06T03:53:53.839Z,11.2
2023-10-06T03:54:54.796Z,11.1
2023-10-06T03:55:55.889Z,11
2023-10-06T03:56:56.781Z,11
2023-10-06T03:57:57.843Z,11
2023-10-06T03:58:58.871Z,10.9
2023-10-06T03:59:59.815Z,10.9
2023-10-06T04:01:00.973Z,10.8
2023-10-06T04:02:01.924Z,10.9
2023-10-06T04:03:02.893Z,10.8
2023-10-06T04:04:03.937Z,10.8
2023-10-06T04:05:04.854Z,10.8
2023-10-06T04:06:05.826Z,10.9
2023-10-06T04:07:06.801Z,10.9
2023-10-06T04:08:07.848Z,11
2023-10-06T04:09:12.656Z,11.1
2023-10-06T04:10:13.742Z,11.1
2023-10-06T04:11:14.689Z,11.2
2023-10-06T04:12:15.717Z,11.2
2023-10-06T04:13:16.733Z,11.2
2023-10-06T04:14:17.732Z,11.2
2023-10-06T04:15:18.736Z,11.3
2023-10-06T04:16:19.874Z,11.3
2023-10-06T04:17:20.563Z,11.4
2023-10-06T04:18:21.650Z,11.5
2023-10-06T04:19:22.742Z,11.5
2023-10-06T04:20:23.646Z,11.5
2023-10-06T04:21:24.667Z,11.5
2023-10-06T04:22:25.694Z,11.3
2023-10-06T04:23:26.699Z,11.3
2023-10-06T04:24:27.685Z,11.3
2023-10-06T04:25:28.678Z,11.3
2023-10-06T04:26:29.763Z,11.3
2023-10-06T04:27:30.703Z,11.4
2023-10-06T04:28:43.259Z,11.3
2023-10-06T04:29:48.051Z,11.3
2023-10-06T04:30:57.000Z,11.3
2023-10-06T04:32:09.454Z,11.2
2023-10-06T04:33:21.865Z,11.2
2023-10-06T04:34:43.241Z,11.1
2023-10-06T04:35:59.603Z,11
2023-10-06T04:37:23.776Z,11
2023-10-06T04:38:32.622Z,11.1
2023-10-06T04:39:53.774Z,11
2023-10-06T04:41:19.825Z,10.9
2023-10-06T04:42:43.838Z,10.9
2023-10-06T04:44:08.988Z,10.9
2023-10-06T04:45:21.974Z,10.9
2023-10-06T04:46:46.697Z,10.9
2023-10-06T04:48:10.833Z,10.9
2023-10-06T04:49:34.958Z,10.9
2023-10-06T04:50:59.001Z,10.9
2023-10-06T04:52:23.154Z,10.8
2023-10-06T04:53:48.347Z,10.8
2023-10-06T04:55:12.339Z,10.7
2023-10-06T04:56:36.833Z,10.7
2023-10-06T04:58:01.467Z,10.6
2023-10-06T04:59:25.678Z,10.7
2023-10-06T05:00:49.640Z,10.8
2023-10-06T05:02:13.795Z,10.9
2023-10-06T05:03:38.981Z,11
2023-10-06T05:04:44.167Z,11.1
2023-10-06T05:06:12.090Z,11.3
2023-10-06T05:07:36.218Z,11.4
2023-10-06T05:08:51.242Z,11.6
2023-10-06T05:10:07.978Z,11.7
2023-10-06T05:11:34.166Z,11.8
2023-10-06T05:13:00.052Z,12
2023-10-06T05:14:25.155Z,12
2023-10-06T05:15:50.246Z,12.1
2023-10-06T05:17:14.450Z,12.2
2023-10-06T05:18:39.588Z,12.3
2023-10-06T05:19:44.896Z,12.5
2023-10-06T05:21:09.585Z,12.5
2023-10-06T05:22:34.940Z,12.6
2023-10-06T05:24:04.762Z,12.8
2023-10-06T05:25:11.964Z,12.8
2023-10-06T05:26:39.146Z,12.8
2023-10-06T05:28:03.711Z,12.9
2023-10-06T05:29:27.977Z,12.9
2023-10-06T05:30:53.226Z,12.9
2023-10-06T05:32:19.236Z,12.9
2023-10-06T05:33:43.534Z,12.9
2023-10-06T05:35:08.967Z,12.9
2023-10-06T05:36:37.832Z,12.9
2023-10-06T05:38:02.512Z,13
2023-10-06T05:39:26.544Z,13
2023-10-06T05:40:50.709Z,12.9
2023-10-06T05:41:55.706Z,12.8
2023-10-06T05:43:16.232Z,12.7
2023-10-06T05:44:21.634Z,12.7
2023-10-06T05:45:45.845Z,12.7
2023-10-06T05:47:09.988Z,12.7
2023-10-06T05:48:35.175Z,12.8
2023-10-06T05:49:59.064Z,12.8
2023-10-06T05:51:23.312Z,12.9
2023-10-06T05:52:40.078Z,12.9
2023-10-06T05:54:06.040Z,13.1
2023-10-06T05:55:16.976Z,13.2
2023-10-06T05:56:46.627Z,13.4
2023-10-06T05:58:12.763Z,13.5
2023-10-06T05:59:22.822Z,13.6
2023-10-06T06:00:48.563Z,13.7
2023-10-06T06:01:58.889Z,13.9
2023-10-06T06:03:24.690Z,13.9
2023-10-06T06:04:46.024Z,14
2023-10-06T06:05:55.713Z,14.2
2023-10-06T06:07:02.788Z,14.3
2023-10-06T06:08:27.426Z,14.4
2023-10-06T06:09:52.404Z,14.4
2023-10-06T06:11:16.580Z,14.4
2023-10-06T06:12:40.522Z,14.4
2023-10-06T06:13:59.260Z,14.4
2023-10-06T06:15:18.499Z,14.4
2023-10-06T06:16:47.709Z,14.4
2023-10-06T06:18:04.084Z,14.4
2023-10-06T06:19:28.978Z,14.5
2023-10-06T06:20:45.917Z,14.5
2023-10-06T06:22:12.641Z,14.5
2023-10-06T06:23:36.840Z,14.6
2023-10-06T06:25:01.867Z,14.6
2023-10-06T06:26:26.878Z,14.7
2023-10-06T06:27:52.168Z,14.7
2023-10-06T06:29:18.032Z,14.6
2023-10-06T06:30:42.313Z,14.6
2023-10-06T06:32:07.751Z,14.6
2023-10-06T06:33:33.426Z,14.6
2023-10-06T06:34:38.807Z,14.5
2023-10-06T06:36:05.548Z,14.5
2023-10-06T06:37:32.657Z,14.4
2023-10-06T06:38:58.635Z,14.4
2023-10-06T06:40:22.646Z,14.5
2023-10-06T06:41:46.802Z,14.4
2023-10-06T06:43:12.463Z,14.3
2023-10-06T06:44:38.333Z,14.3
2023-10-06T06:46:03.115Z,14.2
2023-10-06T06:47:27.147Z,14
2023-10-06T06:48:32.448Z,13.9
2023-10-06T06:49:51.733Z,13.9
2023-10-06T06:51:18.512Z,13.9
2023-10-06T06:52:42.783Z,14
2023-10-06T06:54:07.967Z,14.1
2023-10-06T06:55:36.212Z,14.2
2023-10-06T06:57:00.938Z,14.2
2023-10-06T06:58:26.207Z,14.1
2023-10-06T06:59:50.322Z,14.2
2023-10-06T07:01:14.448Z,14.2
2023-10-06T07:02:39.387Z,14.3
2023-10-06T07:04:03.654Z,14.3
2023-10-06T07:05:27.516Z,14.2
2023-10-06T07:06:53.008Z,14.3
2023-10-06T07:08:18.122Z,14.3
2023-10-06T07:09:42.981Z,14.3
2023-10-06T07:11:07.225Z,14.2
2023-10-06T07:12:33.525Z,14.1
2023-10-06T07:13:58.517Z,13.9
2023-10-06T07:15:22.539Z,13.9
2023-10-06T07:16:46.724Z,13.8
2023-10-06T07:18:10.808Z,13.7
2023-10-06T07:19:34.770Z,13.5
2023-10-06T07:20:58.718Z,13.3
2023-10-06T07:22:24.407Z,13.4
2023-10-06T07:23:29.887Z,13.4
2023-10-06T07:24:57.118Z,13.4
2023-10-06T07:26:25.571Z,13.3
2023-10-06T07:27:50.179Z,13.4
2023-10-06T07:29:15.101Z,13.6
2023-10-06T07:30:39.256Z,13.7
2023-10-06T07:32:04.498Z,13.8
2023-10-06T07:33:12.592Z,13.9
2023-10-06T07:34:38.821Z,13.8
2023-10-06T07:35:52.202Z,13.7
2023-10-06T07:37:19.047Z,13.6
2023-10-06T07:38:43.226Z,13.6
2023-10-06T07:40:07.854Z,13.6
2023-10-06T07:41:32.322Z,13.5
2023-10-06T07:42:56.504Z,13.4
2023-10-06T07:44:16.627Z,13.3
2023-10-06T07:45:24.236Z,13.2
2023-10-06T07:46:47.772Z,13.3
2023-10-06T07:48:14.860Z,13.3
2023-10-06T07:49:39.192Z,13.4
2023-10-06T07:51:03.916Z,13.4
2023-10-06T07:52:28.974Z,13.4
2023-10-06T07:53:56.798Z,13.5
2023-10-06T07:55:23.191Z,13.4
2023-10-06T07:56:28.190Z,13.4
2023-10-06T07:57:53.513Z,13.3
2023-10-06T07:59:11.200Z,13.2
2023-10-06T08:00:17.480Z,13.4
2023-10-06T08:01:42.875Z,13.5
2023-10-06T08:03:07.790Z,13.3
2023-10-06T08:04:31.787Z,13.3
2023-10-06T08:05:40.624Z,13.2
2023-10-06T08:07:04.638Z,13.3
2023-10-06T08:08:28.691Z,13.4
2023-10-06T08:09:53.895Z,13.4
2023-10-06T08:11:21.395Z,13.5
2023-10-06T08:12:42.999Z,13.7
2023-10-06T08:14:10.322Z,13.7
2023-10-06T08:15:34.522Z,13.6
2023-10-06T08:16:58.426Z,13.5
2023-10-06T08:18:22.619Z,13.4
2023-10-06T08:19:28.747Z,13.3
2023-10-06T08:20:53.303Z,13.5
2023-10-06T08:22:18.532Z,13.6
2023-10-06T08:23:42.780Z,13.7
2023-10-06T08:25:06.802Z,13.8
2023-10-06T08:26:31.879Z,13.9
2023-10-06T08:27:58.117Z,14
2023-10-06T08:29:22.067Z,14.1
2023-10-06T08:30:31.306Z,14.2
2023-10-06T08:31:56.843Z,14.2
2023-10-06T08:33:20.956Z,14.4
2023-10-06T08:34:46.453Z,14.5
2023-10-06T08:36:11.313Z,14.6
2023-10-06T08:37:37.639Z,14.7
2023-10-06T08:38:54.697Z,14.8
2023-10-06T08:40:18.993Z,14.9
2023-10-06T08:41:46.063Z,15.2
2023-10-06T08:43:15.070Z,15.4
2023-10-06T08:44:39.503Z,15.6
2023-10-06T08:45:53.252Z,15.2
2023-10-06T08:47:27.769Z,15.1
2023-10-06T08:48:42.532Z,15
2023-10-06T08:49:55.516Z,14.8
2023-10-06T08:51:19.537Z,14.7
2023-10-06T08:52:46.373Z,14.8
2023-10-06T08:54:11.242Z,14.9
2023-10-06T08:55:40.432Z,15.1
2023-10-06T08:56:53.583Z,15.3
2023-10-06T08:58:17.432Z,15.4
2023-10-06T08:59:42.060Z,15.5
2023-10-06T09:01:07.560Z,15.5
2023-10-06T09:02:31.955Z,15.5
2023-10-06T09:03:55.976Z,15.5
2023-10-06T09:05:20.654Z,15.3
2023-10-06T09:06:45.151Z,15.1
2023-10-06T09:08:10.704Z,15.1
2023-10-06T09:09:35.566Z,15.1
2023-10-06T09:10:59.623Z,15.3
2023-10-06T09:12:24.075Z,15.1
2023-10-06T09:13:49.757Z,15.1
2023-10-06T09:15:13.932Z,15
2023-10-06T09:16:34.070Z,14.9
2023-10-06T09:17:39.101Z,15
2023-10-06T09:19:03.145Z,15.1
2023-10-06T09:20:30.840Z,15.3
2023-10-06T09:21:53.266Z,15.7
2023-10-06T09:23:05.785Z,15.8
2023-10-06T09:24:14.639Z,15.8
2023-10-06T09:25:42.190Z,16
2023-10-06T09:27:06.045Z,16.4
2023-10-06T09:28:34.422Z,16.4
2023-10-06T09:30:16.911Z,16
2023-10-06T09:31:51.816Z,16.1
2023-10-06T09:33:37.775Z,15.9
2023-10-06T09:35:02.058Z,15.7
2023-10-06T09:36:36.646Z,15.8
2023-10-06T09:37:32.363Z,15.8
2023-10-06T09:38:54.615Z,15.9
2023-10-06T09:40:19.351Z,15.7
2023-10-06T09:41:45.300Z,15.6
2023-10-06T09:43:03.767Z,15.7
2023-10-06T09:44:29.920Z,15.7
2023-10-06T09:45:55.107Z,15.8
2023-10-06T09:47:23.184Z,15.8
2023-10-06T09:48:47.221Z,15.9
2023-10-06T09:50:11.305Z,15.7
2023-10-06T09:51:20.030Z,15.6
2023-10-06T09:52:37.904Z,15.4
2023-10-06T09:54:02.493Z,15.2
2023-10-06T09:55:19.010Z,15.2
2023-10-06T09:56:45.264Z,15.1
2023-10-06T09:58:10.366Z,15.2
2023-10-06T09:59:36.174Z,15.1
2023-10-06T10:01:00.432Z,15.1
2023-10-06T10:02:24.948Z,15.2
2023-10-06T10:03:32.505Z,15.2
2023-10-06T10:04:57.893Z,15.3
2023-10-06T10:06:25.607Z,15.6
2023-10-06T10:07:49.871Z,15.9
2023-10-06T10:09:12.954Z,16.3
2023-10-06T10:10:17.675Z,16.3
2023-10-06T10:11:42.268Z,16.2
2023-10-06T10:13:06.423Z,16.1
2023-10-06T10:14:31.282Z,16.2
2023-10-06T10:16:00.357Z,15.9
2023-10-06T10:17:27.461Z,16
2023-10-06T10:18:42.328Z,16
2023-10-06T10:20:06.953Z,16.1
2023-10-06T10:21:31.004Z,16.2
2023-10-06T10:22:55.590Z,16.2
2023-10-06T10:24:57.749Z,16.4
2023-10-06T10:25:38.118Z,16.4
2023-10-06T10:27:00.326Z,16.4
2023-10-06T10:28:14.969Z,16.4
2023-10-06T10:29:40.814Z,16.5
2023-10-06T10:31:05.693Z,16.5
2023-10-06T10:32:30.830Z,16.5
2023-10-06T10:33:56.635Z,16.4
2023-10-06T10:35:17.410Z,16.3
2023-10-06T10:36:30.191Z,16.2
2023-10-06T10:37:54.867Z,16.1
2023-10-06T10:39:20.013Z,16.1
2023-10-06T10:40:44.173Z,16.2
2023-10-06T10:41:57.021Z,16.2
2023-10-06T10:43:25.049Z,16
2023-10-06T10:44:30.682Z,15.9
2023-10-06T10:45:54.806Z,16
2023-10-06T10:47:18.825Z,16
2023-10-06T10:48:44.993Z,16
2023-10-06T10:50:10.136Z,16.1
2023-10-06T10:51:35.191Z,16
2023-10-06T10:52:48.080Z,15.9
2023-10-06T10:54:15.775Z,15.8
2023-10-06T10:55:30.825Z,15.7
2023-10-06T10:56:44.373Z,15.7
2023-10-06T10:58:11.144Z,15.7
2023-10-06T10:59:36.175Z,15.9
2023-10-06T11:01:01.814Z,16.3
2023-10-06T11:02:26.645Z,16.6
2023-10-06T11:03:51.376Z,17.3
2023-10-06T11:05:15.510Z,17.4
2023-10-06T11:06:40.658Z,17.6
2023-10-06T11:08:05.719Z,17.6
2023-10-06T11:09:29.853Z,17.6
2023-10-06T11:10:53.925Z,17.6
2023-10-06T11:12:23.516Z,17.9
2023-10-06T11:13:54.207Z,18.1
2023-10-06T11:15:07.259Z,18.3
2023-10-06T11:16:31.593Z,18.2
2023-10-06T11:17:56.057Z,18.1
2023-10-06T11:19:20.513Z,17.9
2023-10-06T11:20:44.792Z,17.8
2023-10-06T11:22:09.104Z,17.3
2023-10-06T11:23:34.020Z,17.3
2023-10-06T11:24:59.151Z,17.6
2023-10-06T11:26:30.140Z,17.8
2023-10-06T11:27:57.283Z,17.9
2023-10-06T11:29:22.313Z,18
2023-10-06T11:30:47.530Z,18.1
2023-10-06T11:32:12.658Z,18.1
2023-10-06T11:33:17.869Z,18
2023-10-06T11:34:45.773Z,17.9
2023-10-06T11:36:10.596Z,17.6
2023-10-06T11:37:34.844Z,17.6
2023-10-06T11:38:58.818Z,17.6
2023-10-06T11:40:24.131Z,17.6
2023-10-06T11:41:34.273Z,17.7
2023-10-06T11:43:00.834Z,17.8
2023-10-06T11:44:25.915Z,17.7
2023-10-06T11:45:42.762Z,17.6
2023-10-06T11:47:11.595Z,17.5
2023-10-06T11:48:39.572Z,17.4
2023-10-06T11:50:03.841Z,17.3
2023-10-06T11:51:27.712Z,17.2
2023-10-06T11:52:52.140Z,17.2
2023-10-06T11:54:17.985Z,17.3
2023-10-06T11:55:43.012Z,17.4
2023-10-06T11:57:07.139Z,17.6
2023-10-06T11:58:31.592Z,17.8
2023-10-06T11:59:59.372Z,17.9
2023-10-06T12:01:08.698Z,18.4
2023-10-06T12:02:36.244Z,18.7
2023-10-06T12:03:53.599Z,18.8
2023-10-06T12:05:17.701Z,18.7
2023-10-06T12:06:44.945Z,18.3
2023-10-06T12:08:10.266Z,18.1
2023-10-06T12:09:36.034Z,18.1
2023-10-06T12:10:40.851Z,18.2
2023-10-06T12:12:06.101Z,18
2023-10-06T12:13:28.484Z,17.7
2023-10-06T12:14:54.447Z,17.5
2023-10-06T12:16:18.409Z,17.6
2023-10-06T12:17:35.179Z,17.7
2023-10-06T12:19:00.008Z,18
2023-10-06T12:20:24.870Z,18.2
2023-10-06T12:21:47.282Z,18.2
2023-10-06T12:23:11.527Z,18
2023-10-06T12:24:36.638Z,17.9
2023-10-06T12:25:50.502Z,17.9
2023-10-06T12:27:16.588Z,17.9
2023-10-06T12:28:41.457Z,18
2023-10-06T12:30:05.355Z,17.8
2023-10-06T12:31:29.477Z,17.8
2023-10-06T12:32:46.271Z,17.7
2023-10-06T12:34:13.299Z,17.7
2023-10-06T12:35:30.520Z,17.6
2023-10-06T12:36:47.194Z,17.5
2023-10-06T12:38:12.962Z,17.5
2023-10-06T12:39:37.985Z,17.7
2023-10-06T12:41:04.165Z,17.9
2023-10-06T12:42:28.358Z,17.9
2023-10-06T12:43:52.402Z,17.8
2023-10-06T12:45:05.334Z,17.7
2023-10-06T12:46:30.981Z,17.7
2023-10-06T12:47:40.130Z,17.7
2023-10-06T12:49:04.719Z,17.7
2023-10-06T12:50:29.981Z,17.7
2023-10-06T12:51:35.304Z,17.8
2023-10-06T12:52:59.837Z,17.9
2023-10-06T12:54:26.136Z,17.7
2023-10-06T12:55:51.972Z,17.6
2023-10-06T12:57:16.110Z,17.6
2023-10-06T12:58:40.272Z,17.6
2023-10-06T13:00:06.379Z,17.7
2023-10-06T13:01:30.862Z,17.9
2023-10-06T13:02:55.826Z,18
2023-10-06T13:04:22.102Z,18.2
2023-10-06T13:05:31.962Z,18.2
2023-10-06T13:06:58.018Z,18.1
2023-10-06T13:08:03.724Z,18
2023-10-06T13:09:28.609Z,17.9
2023-10-06T13:10:55.804Z,17.9
2023-10-06T13:12:21.902Z,17.7
2023-10-06T13:13:27.050Z,17.7
2023-10-06T13:14:53.598Z,17.6
2023-10-06T13:16:18.750Z,17.6
2023-10-06T13:17:40.105Z,17.5
2023-10-06T13:18:53.910Z,17.5
2023-10-06T13:20:22.885Z,17.5
2023-10-06T13:21:50.701Z,17.5
2023-10-06T13:23:15.123Z,17.5
2023-10-06T13:24:30.385Z,17.5
2023-10-06T13:25:44.303Z,17.3
2023-10-06T13:26:50.392Z,17.1
2023-10-06T13:28:14.888Z,17.1
2023-10-06T13:29:23.981Z,17.1
2023-10-06T13:30:51.715Z,17
2023-10-06T13:31:56.895Z,17
2023-10-06T13:33:23.026Z,17.1
2023-10-06T13:34:40.053Z,17.1
2023-10-06T13:36:06.469Z,16.9
2023-10-06T13:37:28.227Z,16.9
2023-10-06T13:38:52.510Z,16.9
2023-10-06T13:40:17.443Z,16.9
2023-10-06T13:41:41.961Z,16.9
2023-10-06T13:43:06.690Z,17
2023-10-06T13:44:30.842Z,17
2023-10-06T13:45:56.967Z,17
2023-10-06T13:47:21.014Z,17.1
2023-10-06T13:48:41.386Z,17.1
2023-10-06T13:49:57.708Z,17.2
2023-10-06T13:51:21.805Z,17.1
2023-10-06T13:52:30.840Z,17
2023-10-06T13:53:57.714Z,16.8
2023-10-06T13:55:10.772Z,16.7
2023-10-06T13:56:35.783Z,16.7
2023-10-06T13:58:00.525Z,16.8
2023-10-06T13:59:24.525Z,16.8
2023-10-06T14:00:48.633Z,16.9
2023-10-06T14:02:13.405Z,17
2023-10-06T14:03:37.846Z,17
2023-10-06T14:05:02.199Z,17
2023-10-06T14:06:18.920Z,17
2023-10-06T14:07:46.900Z,16.9
2023-10-06T14:09:05.454Z,16.8
2023-10-06T14:10:20.317Z,16.7
2023-10-06T14:11:48.653Z,16.7
2023-10-06T14:13:15.762Z,16.5
2023-10-06T14:14:41.535Z,16.4
2023-10-06T14:15:48.277Z,16.3
2023-10-06T14:17:15.910Z,16.4
2023-10-06T14:18:32.931Z,16.4
2023-10-06T14:19:57.617Z,16.3
2023-10-06T14:21:20.595Z,16.3
2023-10-06T14:22:30.724Z,16.2
2023-10-06T14:23:55.525Z,16.1
2023-10-06T14:25:19.655Z,16
2023-10-06T14:26:32.546Z,16.1
2023-10-06T14:27:57.146Z,16.1
2023-10-06T14:29:21.326Z,16.1
2023-10-06T14:30:45.502Z,16.1
2023-10-06T14:32:11.479Z,16.1
2023-10-06T14:33:35.657Z,16.1
2023-10-06T14:34:59.781Z,16.1
2023-10-06T14:36:16.622Z,16.2
2023-10-06T14:37:43.228Z,16.3
2023-10-06T14:39:07.467Z,16.2
2023-10-06T14:40:36.742Z,16.2
2023-10-06T14:42:00.545Z,16.3
2023-10-06T14:43:24.698Z,16.2
2023-10-06T14:44:50.102Z,16.1
2023-10-06T14:46:11.610Z,16.1
2023-10-06T14:47:37.471Z,15.9
2023-10-06T14:49:04.242Z,15.9
2023-10-06T14:50:13.587Z,15.9
2023-10-06T14:51:38.065Z,15.9
2023-10-06T14:53:02.563Z,15.9
2023-10-06T14:54:24.547Z,15.8
2023-10-06T14:55:50.656Z,15.8
2023-10-06T14:56:55.545Z,15.7
2023-10-06T14:58:20.630Z,15.6
2023-10-06T14:59:45.672Z,15.6
2023-10-06T15:01:07.144Z,15.6
2023-10-06T15:02:32.211Z,15.6
2023-10-06T15:03:58.563Z,15.6
2023-10-06T15:05:08.171Z,15.6
2023-10-06T15:06:34.977Z,15.5
2023-10-06T15:07:59.214Z,15.5
2023-10-06T15:09:23.195Z,15.6
2023-10-06T15:10:34.875Z,15.6
2023-10-06T15:12:00.390Z,15.7
2023-10-06T15:13:25.123Z,15.7
2023-10-06T15:14:49.116Z,15.7
2023-10-06T15:16:13.338Z,15.8
2023-10-06T15:17:33.836Z,16
2023-10-06T15:18:59.778Z,16
2023-10-06T15:20:26.666Z,16
2023-10-06T15:21:35.791Z,15.9
2023-10-06T15:23:01.780Z,15.9
2023-10-06T15:24:26.607Z,15.9
2023-10-06T15:25:50.729Z,16
2023-10-06T15:27:15.128Z,16
2023-10-06T15:28:37.851Z,16.1
2023-10-06T15:29:52.490Z,16
2023-10-06T15:31:16.741Z,16
2023-10-06T15:32:36.880Z,16
2023-10-06T15:34:00.965Z,16
2023-10-06T15:35:25.124Z,16
2023-10-06T15:36:50.184Z,16
2023-10-06T15:38:14.540Z,16
2023-10-06T15:39:20.013Z,15.9
2023-10-06T15:40:44.209Z,16
2023-10-06T15:42:09.448Z,15.9
2023-10-06T15:43:33.481Z,15.8
2023-10-06T15:44:58.550Z,15.7
2023-10-06T15:46:25.085Z,15.7
2023-10-06T15:47:56.820Z,15.8
2023-10-06T15:49:21.060Z,15.8
2023-10-06T15:50:33.540Z,15.8
2023-10-06T15:51:42.200Z,15.7
2023-10-06T15:53:06.485Z,15.8
2023-10-06T15:54:32.377Z,15.8
2023-10-06T15:55:57.464Z,15.8
2023-10-06T15:57:21.576Z,15.8
2023-10-06T15:58:43.644Z,15.8
2023-10-06T16:00:10.002Z,15.9
2023-10-06T16:01:36.059Z,15.9
2023-10-06T16:03:01.417Z,15.9
2023-10-06T16:04:22.533Z,15.8
2023-10-06T16:05:47.529Z,15.8
2023-10-06T16:07:09.171Z,15.8
2023-10-06T16:08:26.867Z,15.8
2023-10-06T16:09:53.406Z,15.6
2023-10-06T16:11:18.427Z,15.6
2023-10-06T16:12:44.722Z,15.6
2023-10-06T16:14:09.875Z,15.6
2023-10-06T16:15:33.761Z,15.6
2023-10-06T16:16:57.808Z,15.5
2023-10-06T16:18:03.117Z,15.5
2023-10-06T16:19:27.774Z,15.5
2023-10-06T16:20:51.546Z,15.4
2023-10-06T16:22:14.116Z,15.4
2023-10-06T16:23:30.888Z,15.3
2023-10-06T16:24:55.823Z,15.3
2023-10-06T16:26:20.984Z,15.4
2023-10-06T16:27:46.248Z,15.5
2023-10-06T16:29:11.839Z,15.4
2023-10-06T16:30:35.432Z,15.4
2023-10-06T16:31:59.636Z,15.4
2023-10-06T16:33:24.525Z,15.4
2023-10-06T16:34:49.726Z,15.5
2023-10-06T16:36:13.923Z,15.4
2023-10-06T16:37:37.902Z,15.4
2023-10-06T16:39:02.895Z,15.3
2023-10-06T16:40:27.173Z,15.2
2023-10-06T16:41:52.138Z,15.2
2023-10-06T16:43:18.220Z,15.1
2023-10-06T16:44:42.331Z,15.2
2023-10-06T16:46:07.708Z,15.2
2023-10-06T16:47:31.576Z,15.2
2023-10-06T16:48:57.635Z,15.2
2023-10-06T16:50:10.644Z,15.3
2023-10-06T16:51:19.931Z,15.3